createdAt,value
2018-08-13T00:00:11.950Z,17.49
2018-08-13T00:01:11.875Z,17.49
2018-08-13T00:02:11.799Z,17.48
2018-08-13T00:03:11.713Z,17.49
2018-08-13T00:04:11.637Z,17.37
2018-08-13T00:05:11.563Z,17.44
2018-08-13T00:06:11.474Z,17.43
2018-08-13T00:07:11.399Z,17.48
2018-08-13T00:08:11.337Z,17.40
2018-08-13T00:09:11.236Z,17.48
2018-08-13T00:10:11.163Z,17.49
2018-08-13T00:11:11.074Z,17.43
2018-08-13T00:12:11.000Z,17.26
2018-08-13T00:13:10.925Z,17.34
2018-08-13T00:14:10.838Z,17.31
2018-08-13T00:15:10.765Z,17.26
2018-08-13T00:16:10.688Z,17.28
2018-08-13T00:17:10.600Z,17.33
2018-08-13T00:18:10.526Z,17.25
2018-08-13T00:19:10.439Z,17.28
2018-08-13T00:20:10.366Z,17.28
2018-08-13T00:21:10.290Z,17.23
2018-08-13T00:22:10.200Z,17.22
2018-08-13T00:23:10.126Z,17.25
2018-08-13T00:24:10.040Z,17.16
2018-08-13T00:25:09.965Z,17.22
2018-08-13T00:26:09.889Z,17.19
2018-08-13T00:27:09.801Z,17.16
2018-08-13T00:28:09.727Z,17.14
2018-08-13T00:29:09.651Z,17.08
2018-08-13T00:30:09.566Z,17.04
2018-08-13T00:31:09.491Z,17.07
2018-08-13T00:32:09.402Z,17.07
2018-08-13T00:33:09.328Z,17.08
2018-08-13T00:34:09.252Z,17.12
2018-08-13T00:35:09.169Z,17.11
2018-08-13T00:36:09.090Z,17.07
2018-08-13T00:37:09.016Z,17.12
2018-08-13T00:38:08.928Z,17.11
2018-08-13T00:39:08.853Z,17.07
2018-08-13T00:40:08.777Z,17.12
2018-08-13T00:41:08.691Z,17.15
2018-08-13T00:42:08.616Z,17.04
2018-08-13T00:43:08.528Z,17.15
2018-08-13T00:44:08.454Z,17.07
2018-08-13T00:45:08.377Z,17.11
2018-08-13T00:46:08.292Z,17.12
2018-08-13T00:47:08.217Z,17.12
2018-08-13T00:48:08.166Z,17.08
2018-08-13T00:49:08.054Z,17.16
2018-08-13T00:50:07.967Z,17.08
2018-08-13T00:51:07.892Z,17.16
2018-08-13T00:52:07.817Z,17.16
2018-08-13T00:53:07.729Z,17.22
2018-08-13T00:54:07.659Z,17.21
2018-08-13T00:55:07.579Z,17.23
2018-08-13T00:56:07.493Z,17.19
2018-08-13T00:57:07.417Z,17.16
2018-08-13T00:58:07.335Z,17.22
2018-08-13T00:59:07.256Z,17.19
2018-08-13T01:00:07.180Z,17.23
2018-08-13T01:01:07.094Z,17.25
2018-08-13T01:02:07.023Z,17.19
2018-08-13T01:03:06.930Z,17.15
2018-08-13T01:04:06.856Z,17.08
2018-08-13T01:05:06.784Z,17.18
2018-08-13T01:06:06.693Z,17.12
2018-08-13T01:07:06.618Z,17.11
2018-08-13T01:08:06.531Z,17.12
2018-08-13T01:09:06.461Z,17.04
2018-08-13T01:10:06.381Z,17.07
2018-08-13T01:11:06.296Z,17.07
2018-08-13T01:12:06.219Z,16.98
2018-08-13T01:13:06.133Z,17.00
2018-08-13T01:14:06.056Z,17.11
2018-08-13T01:15:05.982Z,17.00
2018-08-13T01:16:05.899Z,17.06
2018-08-13T01:17:05.820Z,17.03
2018-08-13T01:18:05.734Z,17.01
2018-08-13T01:19:05.670Z,17.06
2018-08-13T01:20:05.601Z,17.04
2018-08-13T01:21:05.498Z,16.96
2018-08-13T01:22:05.421Z,17.01
2018-08-13T01:23:05.347Z,16.83
2018-08-13T01:24:05.257Z,16.89
2018-08-13T01:25:05.184Z,16.91
2018-08-13T01:26:05.097Z,16.93
2018-08-13T01:27:05.022Z,16.94
2018-08-13T01:28:04.948Z,16.85
2018-08-13T01:29:04.858Z,16.75
2018-08-13T01:30:04.783Z,16.86
2018-08-13T01:31:04.699Z,16.81
2018-08-13T01:32:04.623Z,16.83
2018-08-13T01:33:04.548Z,16.75
2018-08-13T01:34:04.459Z,16.76
2018-08-13T01:35:04.397Z,16.79
2018-08-13T01:36:04.298Z,16.73
2018-08-13T01:37:04.224Z,16.70
2018-08-13T01:38:04.139Z,16.66
2018-08-13T01:39:04.060Z,16.68
2018-08-13T01:40:03.998Z,16.71
2018-08-13T01:41:03.898Z,16.60
2018-08-13T01:42:03.823Z,16.63
2018-08-13T01:43:03.736Z,16.61
2018-08-13T01:44:03.660Z,16.50
2018-08-13T01:45:03.598Z,16.49
2018-08-13T01:46:03.499Z,16.49
2018-08-13T01:47:03.425Z,16.46
2018-08-13T01:48:03.336Z,16.46
2018-08-13T01:49:03.260Z,16.46
2018-08-13T01:50:03.198Z,16.46
2018-08-13T01:51:03.099Z,16.39
2018-08-13T01:52:03.024Z,16.30
2018-08-13T01:53:02.937Z,16.34
2018-08-13T01:54:02.860Z,16.35
2018-08-13T01:55:02.798Z,16.34
2018-08-13T01:56:02.699Z,16.33
2018-08-13T01:57:02.630Z,16.38
2018-08-13T01:58:02.536Z,16.27
2018-08-13T01:59:02.462Z,16.20
2018-08-13T02:00:02.388Z,16.27
2018-08-13T02:01:02.300Z,16.27
2018-08-13T02:02:02.225Z,16.24
2018-08-13T02:03:02.137Z,16.23
2018-08-13T02:04:02.062Z,16.12
2018-08-13T02:05:01.980Z,16.14
2018-08-13T02:06:01.901Z,16.15
2018-08-13T02:07:01.814Z,16.14
2018-08-13T02:08:01.750Z,16.08
2018-08-13T02:09:01.663Z,16.08
2018-08-13T02:10:01.582Z,16.07
2018-08-13T02:11:01.501Z,16.20
2018-08-13T02:12:01.414Z,16.09
2018-08-13T02:13:01.351Z,16.11
2018-08-13T02:14:01.263Z,16.07
2018-08-13T02:15:01.184Z,16.11
2018-08-13T02:16:01.101Z,16.01
2018-08-13T02:17:01.013Z,16.12
2018-08-13T02:18:00.951Z,16.02
2018-08-13T02:19:00.851Z,16.15
2018-08-13T02:20:00.777Z,16.05
2018-08-13T02:21:00.702Z,16.04
2018-08-13T02:22:00.614Z,16.05
2018-08-13T02:23:00.539Z,15.97
2018-08-13T02:24:00.453Z,16.01
2018-08-13T02:25:00.378Z,16.04
2018-08-13T02:26:00.290Z,16.01
2018-08-13T02:27:00.214Z,16.01
2018-08-13T02:28:00.139Z,16.04
2018-08-13T02:29:00.053Z,16.02
2018-08-13T02:29:59.977Z,15.97
2018-08-13T02:30:59.891Z,15.97
2018-08-13T02:31:59.818Z,15.96
2018-08-13T02:32:59.740Z,15.90
2018-08-13T02:33:59.653Z,15.90
2018-08-13T02:34:59.583Z,15.96
2018-08-13T02:35:59.491Z,15.96
2018-08-13T02:36:59.415Z,16.01
2018-08-13T02:37:59.340Z,15.90
2018-08-13T02:38:59.256Z,15.93
2018-08-13T02:39:59.180Z,15.90
2018-08-13T02:40:59.091Z,15.92
2018-08-13T02:41:59.004Z,15.90
2018-08-13T02:42:58.932Z,15.96
2018-08-13T02:43:58.855Z,15.94
2018-08-13T02:44:58.767Z,15.94
2018-08-13T02:45:58.692Z,15.93
2018-08-13T02:46:58.606Z,15.84
2018-08-13T02:47:58.529Z,15.86
2018-08-13T02:48:58.442Z,15.86
2018-08-13T02:49:58.367Z,15.86
2018-08-13T02:50:58.281Z,15.83
2018-08-13T02:51:58.209Z,15.92
2018-08-13T02:52:58.132Z,15.75
2018-08-13T02:53:58.043Z,15.76
2018-08-13T02:54:57.967Z,15.72
2018-08-13T02:55:57.881Z,15.72
2018-08-13T02:56:57.807Z,15.67
2018-08-13T02:57:57.758Z,15.74
2018-08-13T02:58:57.644Z,15.74
2018-08-13T02:59:57.588Z,15.71
2018-08-13T03:00:57.482Z,15.71
2018-08-13T03:01:57.412Z,15.74
2018-08-13T03:02:57.318Z,15.65
2018-08-13T03:03:57.257Z,15.64
2018-08-13T03:04:57.160Z,15.74
2018-08-13T03:05:57.089Z,15.64
2018-08-13T03:06:56.996Z,15.67
2018-08-13T03:07:56.919Z,15.64
2018-08-13T03:08:56.857Z,15.68
2018-08-13T03:09:56.762Z,15.60
2018-08-13T03:10:56.684Z,15.68
2018-08-13T03:11:56.594Z,15.68
2018-08-13T03:12:56.520Z,15.53
2018-08-13T03:13:56.433Z,15.56
2018-08-13T03:14:56.359Z,15.64
2018-08-13T03:15:56.270Z,15.56
2018-08-13T03:16:56.195Z,15.56
2018-08-13T03:17:56.108Z,15.59
2018-08-13T03:18:56.036Z,15.59
2018-08-13T03:19:55.958Z,15.54
2018-08-13T03:20:55.871Z,15.54
2018-08-13T03:21:55.796Z,15.54
2018-08-13T03:22:55.709Z,15.57
2018-08-13T03:23:55.634Z,15.54
2018-08-13T03:24:55.546Z,15.54
2018-08-13T03:25:55.472Z,15.50
2018-08-13T03:26:55.384Z,15.50
2018-08-13T03:27:55.310Z,15.38
2018-08-13T03:28:55.223Z,15.41
2018-08-13T03:29:55.159Z,15.43
2018-08-13T03:30:55.071Z,15.44
2018-08-13T03:31:54.985Z,15.46
2018-08-13T03:32:54.911Z,15.38
2018-08-13T03:33:54.822Z,15.34
2018-08-13T03:34:54.747Z,15.34
2018-08-13T03:35:54.660Z,15.36
2018-08-13T03:36:54.587Z,15.44
2018-08-13T03:37:54.497Z,15.32
2018-08-13T03:38:54.426Z,15.36
2018-08-13T03:39:54.337Z,15.36
2018-08-13T03:40:54.260Z,15.32
2018-08-13T03:41:54.174Z,15.32
2018-08-13T03:42:54.111Z,15.28
2018-08-13T03:43:54.023Z,15.38
2018-08-13T03:44:53.939Z,15.29
2018-08-13T03:45:53.861Z,15.35
2018-08-13T03:46:53.774Z,15.38
2018-08-13T03:47:53.700Z,15.27
2018-08-13T03:48:53.611Z,15.35
2018-08-13T03:49:53.537Z,15.29
2018-08-13T03:50:53.449Z,15.32
2018-08-13T03:51:53.403Z,15.34
2018-08-13T03:52:53.299Z,15.31
2018-08-13T03:53:53.230Z,15.25
2018-08-13T03:54:53.137Z,15.35
2018-08-13T03:55:53.049Z,15.38
2018-08-13T03:56:52.976Z,15.36
2018-08-13T03:57:52.888Z,15.38
2018-08-13T03:58:52.813Z,15.32
2018-08-13T03:59:52.738Z,15.34
2018-08-13T04:00:52.650Z,15.39
2018-08-13T04:01:52.563Z,15.32
2018-08-13T04:02:52.489Z,15.34
2018-08-13T04:03:52.403Z,15.31
2018-08-13T04:04:52.339Z,15.29
2018-08-13T04:05:52.240Z,15.35
2018-08-13T04:06:52.163Z,15.31
2018-08-13T04:07:52.077Z,15.32
2018-08-13T04:08:52.001Z,15.31
2018-08-13T04:09:51.939Z,15.39
2018-08-13T04:10:51.841Z,15.36
2018-08-13T04:11:51.765Z,15.35
2018-08-13T04:12:51.711Z,15.34
2018-08-13T04:13:51.602Z,15.32
2018-08-13T04:14:51.515Z,15.35
2018-08-13T04:15:51.439Z,15.39
2018-08-13T04:16:51.352Z,15.39
2018-08-13T04:17:51.277Z,15.39
2018-08-13T04:18:51.201Z,15.39
2018-08-13T04:19:51.116Z,15.43
2018-08-13T04:20:51.041Z,15.43
2018-08-13T04:21:50.954Z,15.39
2018-08-13T04:22:50.878Z,15.56
2018-08-13T04:23:50.791Z,15.51
2018-08-13T04:24:50.715Z,15.65
2018-08-13T04:25:50.629Z,15.62
2018-08-13T04:26:50.553Z,15.80
2018-08-13T04:27:50.466Z,15.76
2018-08-13T04:28:50.392Z,15.86
2018-08-13T04:29:50.303Z,15.84
2018-08-13T04:30:50.228Z,15.93
2018-08-13T04:31:50.144Z,15.94
2018-08-13T04:32:50.150Z,16.04
2018-08-13T04:33:49.979Z,15.97
2018-08-13T04:34:49.903Z,16.00
2018-08-13T04:35:49.831Z,16.14
2018-08-13T04:36:49.742Z,16.25
2018-08-13T04:37:49.671Z,16.35
2018-08-13T04:38:49.579Z,16.38
2018-08-13T04:39:49.505Z,16.45
2018-08-13T04:40:49.418Z,16.38
2018-08-13T04:41:49.347Z,16.58
2018-08-13T04:42:49.268Z,16.57
2018-08-13T04:43:49.180Z,16.63
2018-08-13T04:44:49.129Z,16.71
2018-08-13T04:45:49.018Z,16.70
2018-08-13T04:46:48.944Z,16.66
2018-08-13T04:47:48.868Z,16.75
2018-08-13T04:48:48.780Z,16.78
2018-08-13T04:49:48.705Z,16.78
2018-08-13T04:50:48.619Z,16.76
2018-08-13T04:51:48.547Z,16.81
2018-08-13T04:52:48.456Z,16.78
2018-08-13T04:53:48.382Z,16.89
2018-08-13T04:54:48.306Z,16.98
2018-08-13T04:55:48.219Z,17.06
2018-08-13T04:56:48.144Z,17.04
2018-08-13T04:57:48.056Z,17.22
2018-08-13T04:58:47.986Z,17.40
2018-08-13T04:59:47.906Z,17.41
2018-08-13T05:00:47.821Z,17.46
2018-08-13T05:01:47.758Z,17.49
2018-08-13T05:02:47.657Z,17.41
2018-08-13T05:03:47.583Z,17.38
2018-08-13T05:04:47.495Z,17.40
2018-08-13T05:05:47.421Z,17.49
2018-08-13T05:06:47.332Z,17.52
2018-08-13T05:07:47.262Z,17.70
2018-08-13T05:08:47.174Z,17.62
2018-08-13T05:09:47.096Z,17.64
2018-08-13T05:10:47.028Z,17.77
2018-08-13T05:11:46.934Z,17.81
2018-08-13T05:12:46.861Z,17.87
2018-08-13T05:13:46.772Z,17.81
2018-08-13T05:14:46.700Z,17.89
2018-08-13T05:15:46.626Z,17.87
2018-08-13T05:16:46.534Z,17.95
2018-08-13T05:17:46.462Z,17.89
2018-08-13T05:18:46.372Z,17.90
2018-08-13T05:19:46.297Z,17.97
2018-08-13T05:20:46.230Z,17.96
2018-08-13T05:21:46.138Z,18.02
2018-08-13T05:22:46.060Z,18.10
2018-08-13T05:23:45.998Z,18.15
2018-08-13T05:24:45.898Z,18.23
2018-08-13T05:25:45.825Z,18.29
2018-08-13T05:26:45.735Z,18.29
2018-08-13T05:27:45.660Z,18.35
2018-08-13T05:28:45.590Z,18.36
2018-08-13T05:29:45.499Z,18.48
2018-08-13T05:30:45.423Z,18.48
2018-08-13T05:31:45.337Z,18.50
2018-08-13T05:32:45.260Z,18.54
2018-08-13T05:33:45.190Z,18.65
2018-08-13T05:34:45.101Z,18.69
2018-08-13T05:35:45.024Z,18.63
2018-08-13T05:36:44.950Z,18.67
2018-08-13T05:37:44.861Z,18.81
2018-08-13T05:38:44.786Z,18.75
2018-08-13T05:39:44.724Z,18.80
2018-08-13T05:40:44.627Z,18.85
2018-08-13T05:41:44.553Z,18.76
2018-08-13T05:42:44.463Z,18.82
2018-08-13T05:43:44.387Z,18.88
2018-08-13T05:44:44.311Z,18.91
2018-08-13T05:45:44.225Z,18.90
2018-08-13T05:46:44.151Z,19.06
2018-08-13T05:47:44.075Z,19.07
2018-08-13T05:48:43.988Z,19.13
2018-08-13T05:49:43.912Z,19.23
2018-08-13T05:50:43.838Z,19.21
2018-08-13T05:51:43.751Z,19.33
2018-08-13T05:52:43.678Z,19.31
2018-08-13T05:53:43.601Z,19.29
2018-08-13T05:54:43.513Z,19.33
2018-08-13T05:55:43.438Z,19.36
2018-08-13T05:56:43.363Z,19.41
2018-08-13T05:57:43.276Z,19.47
2018-08-13T05:58:43.207Z,19.61
2018-08-13T05:59:43.126Z,19.66
2018-08-13T06:00:43.038Z,19.73
2018-08-13T06:01:42.963Z,19.73
2018-08-13T06:02:42.894Z,19.80
2018-08-13T06:03:42.803Z,19.83
2018-08-13T06:04:42.727Z,19.81
2018-08-13T06:05:42.674Z,19.96
2018-08-13T06:06:42.565Z,19.83
2018-08-13T06:07:42.489Z,19.95
2018-08-13T06:08:42.419Z,19.96
2018-08-13T06:09:42.328Z,19.98
2018-08-13T06:10:42.253Z,20.02
2018-08-13T06:11:42.268Z,20.01
2018-08-13T06:12:42.103Z,20.10
2018-08-13T06:13:42.031Z,20.05
2018-08-13T06:14:41.940Z,20.02
2018-08-13T06:15:41.867Z,20.05
2018-08-13T06:16:41.790Z,20.06
2018-08-13T06:17:41.704Z,20.17
2018-08-13T06:18:41.629Z,20.20
2018-08-13T06:19:41.542Z,20.23
2018-08-13T06:20:41.465Z,20.28
2018-08-13T06:21:41.392Z,20.26
2018-08-13T06:22:41.329Z,20.31
2018-08-13T06:23:41.229Z,20.42
2018-08-13T06:24:41.155Z,20.39
2018-08-13T06:25:41.079Z,20.48
2018-08-13T06:26:40.993Z,20.55
2018-08-13T06:27:40.929Z,20.59
2018-08-13T06:28:40.841Z,20.66
2018-08-13T06:29:40.768Z,20.70
2018-08-13T06:30:40.691Z,20.84
2018-08-13T06:31:40.605Z,20.85
2018-08-13T06:32:40.532Z,20.76
2018-08-13T06:33:40.444Z,20.88
2018-08-13T06:34:40.367Z,20.87
2018-08-13T06:35:40.292Z,20.97
2018-08-13T06:36:40.230Z,20.99
2018-08-13T06:37:40.146Z,21.04
2018-08-13T06:38:40.056Z,21.16
2018-08-13T06:39:39.982Z,21.25
2018-08-13T06:40:39.909Z,21.32
2018-08-13T06:41:39.820Z,21.34
2018-08-13T06:42:39.745Z,21.34
2018-08-13T06:43:39.670Z,21.37
2018-08-13T06:44:39.593Z,21.43
2018-08-13T06:45:39.509Z,21.47
2018-08-13T06:46:39.434Z,21.50
2018-08-13T06:47:39.357Z,21.56
2018-08-13T06:48:39.282Z,21.71
2018-08-13T06:49:39.195Z,21.74
2018-08-13T06:50:39.132Z,21.77
2018-08-13T06:51:39.044Z,21.99
2018-08-13T06:52:38.973Z,22.07
2018-08-13T06:53:38.894Z,22.25
2018-08-13T06:54:38.808Z,22.37
2018-08-13T06:55:38.733Z,22.61
2018-08-13T06:56:38.658Z,22.57
2018-08-13T06:57:38.585Z,22.58
2018-08-13T06:58:38.508Z,22.57
2018-08-13T06:59:38.422Z,22.58
2018-08-13T07:00:38.385Z,22.51
2018-08-13T07:01:38.270Z,22.57
2018-08-13T07:02:38.196Z,22.62
2018-08-13T07:03:38.121Z,22.77
2018-08-13T07:04:38.046Z,22.77
2018-08-13T07:05:37.959Z,22.90
2018-08-13T07:06:37.884Z,22.90
2018-08-13T07:07:37.810Z,22.91
2018-08-13T07:08:37.734Z,22.91
2018-08-13T07:09:37.661Z,22.88
2018-08-13T07:10:37.584Z,22.88
2018-08-13T07:11:37.509Z,22.79
2018-08-13T07:12:37.422Z,22.80
2018-08-13T07:13:37.346Z,22.90
2018-08-13T07:14:37.272Z,22.91
2018-08-13T07:15:37.255Z,22.95
2018-08-13T07:16:37.123Z,23.01
2018-08-13T07:17:37.048Z,23.10
2018-08-13T07:18:36.976Z,23.20
2018-08-13T07:19:36.886Z,23.23
2018-08-13T07:20:36.810Z,23.23
2018-08-13T07:21:36.735Z,23.23
2018-08-13T07:22:36.664Z,23.32
2018-08-13T07:23:36.588Z,23.33
2018-08-13T07:24:36.513Z,23.40
2018-08-13T07:25:36.436Z,23.54
2018-08-13T07:26:36.361Z,23.65
2018-08-13T07:27:36.274Z,23.57
2018-08-13T07:28:36.211Z,23.58
2018-08-13T07:29:36.125Z,23.63
2018-08-13T07:30:36.049Z,23.69
2018-08-13T07:31:35.973Z,23.91
2018-08-13T07:32:35.899Z,24.25
2018-08-13T07:33:35.834Z,24.35
2018-08-13T07:34:35.749Z,24.37
2018-08-13T07:35:35.674Z,24.57
2018-08-13T07:36:35.599Z,24.43
2018-08-13T07:37:35.512Z,24.52
2018-08-13T07:38:35.438Z,24.88
2018-08-13T07:39:35.366Z,25.33
2018-08-13T07:40:35.293Z,26.01
2018-08-13T07:41:35.212Z,26.72
2018-08-13T07:42:35.138Z,27.24
2018-08-13T07:43:35.062Z,27.34
2018-08-13T07:44:34.991Z,27.94
2018-08-13T07:45:34.960Z,28.49
2018-08-13T07:46:34.940Z,29.04
2018-08-13T07:47:34.764Z,29.43
2018-08-13T07:48:34.701Z,29.74
2018-08-13T07:49:34.647Z,29.42
2018-08-13T07:50:34.550Z,29.67
2018-08-13T07:51:34.505Z,29.85
2018-08-13T07:52:34.401Z,29.58
2018-08-13T07:53:34.327Z,30.00
2018-08-13T07:54:34.264Z,29.95
2018-08-13T07:55:34.189Z,30.45
2018-08-13T07:56:34.115Z,30.70
2018-08-13T07:57:34.051Z,29.79
2018-08-13T07:58:33.990Z,30.38
2018-08-13T07:59:33.901Z,30.35
2018-08-13T08:00:33.827Z,29.60
2018-08-13T08:01:33.765Z,29.41
2018-08-13T08:02:33.691Z,29.09
2018-08-13T08:03:33.627Z,29.68
2018-08-13T08:04:33.552Z,30.29
2018-08-13T08:05:33.478Z,30.84
2018-08-13T08:06:33.415Z,31.07
2018-08-13T08:07:33.341Z,31.44
2018-08-13T08:08:33.278Z,31.65
2018-08-13T08:09:33.205Z,31.92
2018-08-13T08:10:33.141Z,32.04
2018-08-13T08:11:33.074Z,32.56
2018-08-13T08:12:33.003Z,32.26
2018-08-13T08:13:32.942Z,32.66
2018-08-13T08:14:32.860Z,31.51
2018-08-13T08:15:32.792Z,31.92
2018-08-13T08:16:32.730Z,32.43
2018-08-13T08:17:32.653Z,32.60
2018-08-13T08:18:32.592Z,32.15
2018-08-13T08:19:32.518Z,30.58
2018-08-13T08:20:32.454Z,29.76
2018-08-13T08:21:32.383Z,29.78
2018-08-13T08:22:32.318Z,29.89
2018-08-13T08:23:32.259Z,30.80
2018-08-13T08:24:32.180Z,31.09
2018-08-13T08:25:32.119Z,31.84
2018-08-13T08:26:32.043Z,31.39
2018-08-13T08:27:31.981Z,31.41
2018-08-13T08:28:31.918Z,31.51
2018-08-13T08:29:31.843Z,32.11
2018-08-13T08:30:31.780Z,32.25
2018-08-13T08:31:31.706Z,31.48
2018-08-13T08:32:31.644Z,31.13
2018-08-13T08:33:31.581Z,31.70
2018-08-13T08:34:31.505Z,32.04
2018-08-13T08:35:31.445Z,31.41
2018-08-13T08:36:31.381Z,31.84
2018-08-13T08:37:31.306Z,32.48
2018-08-13T08:38:31.245Z,32.88
2018-08-13T08:39:31.181Z,33.28
2018-08-13T08:40:31.145Z,33.69
2018-08-13T08:41:31.045Z,33.65
2018-08-13T08:42:30.985Z,33.84
2018-08-13T08:43:30.921Z,32.44
2018-08-13T08:44:30.845Z,32.56
2018-08-13T08:45:30.782Z,32.00
2018-08-13T08:46:30.721Z,31.76
2018-08-13T08:47:30.671Z,32.18
2018-08-13T08:48:30.582Z,32.38
2018-08-13T08:49:30.520Z,32.01
2018-08-13T08:50:30.474Z,31.53
2018-08-13T08:51:30.385Z,30.51
2018-08-13T08:52:30.358Z,30.46
2018-08-13T08:53:30.313Z,30.38
2018-08-13T08:54:30.197Z,30.49
2018-08-13T08:55:30.133Z,30.51
2018-08-13T08:56:30.060Z,30.37
2018-08-13T08:57:29.997Z,30.51
2018-08-13T08:58:29.946Z,30.42
2018-08-13T08:59:29.858Z,30.55
2018-08-13T09:00:29.797Z,30.94
2018-08-13T09:01:29.722Z,31.34
2018-08-13T09:02:29.659Z,30.97
2018-08-13T09:03:29.599Z,30.99
2018-08-13T09:04:29.526Z,30.75
2018-08-13T09:05:29.460Z,30.53
2018-08-13T09:06:29.398Z,30.58
2018-08-13T09:07:29.322Z,30.91
2018-08-13T09:08:29.260Z,31.39
2018-08-13T09:09:29.198Z,32.10
2018-08-13T09:10:29.123Z,32.26
2018-08-13T09:11:29.060Z,32.77
2018-08-13T09:12:28.987Z,32.77
2018-08-13T09:13:28.923Z,32.85
2018-08-13T09:14:28.860Z,33.00
2018-08-13T09:15:28.788Z,33.56
2018-08-13T09:16:28.726Z,33.32
2018-08-13T09:17:28.661Z,33.69
2018-08-13T09:18:28.591Z,33.69
2018-08-13T09:19:28.530Z,33.78
2018-08-13T09:20:28.461Z,33.90
2018-08-13T09:21:28.399Z,34.31
2018-08-13T09:22:28.326Z,33.59
2018-08-13T09:23:28.262Z,33.68
2018-08-13T09:24:28.200Z,33.49
2018-08-13T09:25:28.166Z,33.75
2018-08-13T09:26:28.063Z,34.05
2018-08-13T09:27:28.001Z,34.19
2018-08-13T09:28:27.949Z,33.73
2018-08-13T09:29:27.876Z,33.18
2018-08-13T09:30:27.813Z,32.29
2018-08-13T09:31:27.738Z,32.66
2018-08-13T09:32:27.679Z,33.01
2018-08-13T09:33:27.613Z,32.94
2018-08-13T09:34:27.550Z,33.63
2018-08-13T09:35:27.487Z,33.71
2018-08-13T09:36:27.413Z,34.08
2018-08-13T09:37:27.353Z,34.52
2018-08-13T09:38:27.289Z,34.85
2018-08-13T09:39:27.227Z,34.72
2018-08-13T09:40:27.163Z,34.64
2018-08-13T09:41:27.089Z,34.09
2018-08-13T09:42:27.027Z,33.18
2018-08-13T09:43:26.963Z,32.92
2018-08-13T09:44:26.902Z,32.65
2018-08-13T09:45:26.827Z,32.70
2018-08-13T09:46:26.764Z,32.96
2018-08-13T09:47:26.702Z,33.22
2018-08-13T09:48:26.628Z,33.28
2018-08-13T09:49:26.564Z,32.67
2018-08-13T09:50:26.502Z,32.79
2018-08-13T09:51:26.442Z,32.67
2018-08-13T09:52:26.365Z,32.82
2018-08-13T09:53:26.303Z,32.67
2018-08-13T09:54:26.242Z,31.32
2018-08-13T09:55:26.164Z,31.68
2018-08-13T09:56:26.104Z,31.63
2018-08-13T09:57:26.038Z,31.32
2018-08-13T09:58:25.966Z,31.61
2018-08-13T09:59:25.908Z,32.06
2018-08-13T10:00:25.893Z,32.04
2018-08-13T10:01:25.767Z,31.25
2018-08-13T10:02:25.704Z,31.34
2018-08-13T10:03:25.632Z,31.07
2018-08-13T10:04:25.566Z,30.89
2018-08-13T10:05:25.505Z,30.38
2018-08-13T10:06:25.433Z,30.62
2018-08-13T10:07:25.355Z,30.70
2018-08-13T10:08:25.293Z,30.79
2018-08-13T10:09:25.281Z,30.82
2018-08-13T10:10:25.157Z,30.38
2018-08-13T10:11:25.081Z,30.73
2018-08-13T10:12:25.016Z,30.94
2018-08-13T10:13:24.942Z,31.19
2018-08-13T10:14:24.881Z,31.28
2018-08-13T10:15:24.805Z,31.46
2018-08-13T10:16:24.742Z,31.32
2018-08-13T10:17:24.685Z,31.31
2018-08-13T10:18:24.606Z,31.01
2018-08-13T10:19:24.531Z,31.02
2018-08-13T10:20:24.468Z,31.04
2018-08-13T10:21:24.393Z,31.31
2018-08-13T10:22:24.334Z,31.51
2018-08-13T10:23:24.256Z,31.62
2018-08-13T10:24:24.194Z,31.61
2018-08-13T10:25:24.119Z,31.65
2018-08-13T10:26:24.048Z,31.70
2018-08-13T10:27:23.982Z,31.70
2018-08-13T10:28:23.910Z,31.47
2018-08-13T10:29:23.843Z,31.31
2018-08-13T10:30:23.769Z,31.36
2018-08-13T10:31:23.707Z,31.41
2018-08-13T10:32:23.633Z,31.26
2018-08-13T10:33:23.582Z,31.38
2018-08-13T10:34:23.494Z,31.35
2018-08-13T10:35:23.422Z,31.70
2018-08-13T10:36:23.358Z,32.07
2018-08-13T10:37:23.324Z,32.18
2018-08-13T10:38:23.220Z,32.38
2018-08-13T10:39:23.168Z,32.60
2018-08-13T10:40:23.082Z,32.93
2018-08-13T10:41:23.010Z,32.79
2018-08-13T10:42:22.945Z,32.79
2018-08-13T10:43:22.895Z,32.85
2018-08-13T10:44:22.809Z,32.75
2018-08-13T10:45:22.734Z,32.41
2018-08-13T10:46:22.670Z,32.25
2018-08-13T10:47:22.608Z,32.25
2018-08-13T10:48:22.523Z,32.07
2018-08-13T10:49:22.459Z,32.00
2018-08-13T10:50:22.386Z,32.03
2018-08-13T10:51:22.321Z,32.13
2018-08-13T10:52:22.253Z,32.19
2018-08-13T10:53:22.185Z,32.14
2018-08-13T10:54:22.110Z,31.57
2018-08-13T10:55:22.047Z,31.53
2018-08-13T10:56:21.972Z,31.84
2018-08-13T10:57:21.910Z,32.33
2018-08-13T10:58:21.835Z,32.52
2018-08-13T10:59:21.776Z,32.79
2018-08-13T11:00:21.709Z,33.21
2018-08-13T11:01:21.662Z,33.50
2018-08-13T11:02:21.573Z,33.94
2018-08-13T11:03:21.511Z,34.59
2018-08-13T11:04:21.439Z,35.37
2018-08-13T11:05:21.372Z,35.53
2018-08-13T11:06:21.310Z,36.22
2018-08-13T11:07:21.236Z,35.93
2018-08-13T11:08:21.172Z,35.90
2018-08-13T11:09:21.110Z,35.21
2018-08-13T11:10:21.088Z,35.37
2018-08-13T11:11:20.973Z,35.82
2018-08-13T11:12:20.912Z,36.19
2018-08-13T11:13:20.851Z,35.72
2018-08-13T11:14:20.777Z,35.92
2018-08-13T11:15:20.712Z,35.93
2018-08-13T11:16:20.650Z,35.74
2018-08-13T11:17:20.575Z,34.85
2018-08-13T11:18:20.512Z,34.87
2018-08-13T11:19:20.462Z,35.03
2018-08-13T11:20:20.388Z,35.41
2018-08-13T11:21:20.325Z,35.85
2018-08-13T11:22:20.262Z,36.00
2018-08-13T11:23:20.200Z,36.34
2018-08-13T11:24:20.126Z,36.44
2018-08-13T11:25:20.116Z,36.22
2018-08-13T11:26:20.000Z,35.94
2018-08-13T11:27:19.941Z,36.57
2018-08-13T11:28:19.875Z,36.99
2018-08-13T11:29:19.817Z,36.81
2018-08-13T11:30:19.751Z,36.05
2018-08-13T11:31:19.779Z,35.72
2018-08-13T11:32:19.625Z,36.13
2018-08-13T11:33:19.564Z,36.38
2018-08-13T11:34:19.500Z,37.15
2018-08-13T11:35:19.427Z,37.34
2018-08-13T11:36:19.366Z,37.93
2018-08-13T11:37:19.302Z,38.19
2018-08-13T11:38:19.240Z,38.16
2018-08-13T11:39:19.176Z,36.78
2018-08-13T11:40:19.116Z,37.64
2018-08-13T11:41:19.065Z,37.31
2018-08-13T11:42:19.001Z,37.28
2018-08-13T11:43:18.928Z,37.75
2018-08-13T11:44:18.865Z,37.13
2018-08-13T11:45:18.803Z,37.20
2018-08-13T11:46:18.792Z,38.13
2018-08-13T11:47:18.677Z,37.41
2018-08-13T11:48:18.616Z,38.26
2018-08-13T11:49:18.569Z,38.78
2018-08-13T11:50:18.491Z,38.99
2018-08-13T11:51:18.428Z,38.75
2018-08-13T11:52:18.366Z,37.85
2018-08-13T11:53:18.303Z,37.07
2018-08-13T11:54:18.242Z,36.68
2018-08-13T11:55:18.178Z,36.84
2018-08-13T11:56:18.125Z,36.65
2018-08-13T11:57:18.054Z,36.46
2018-08-13T11:58:17.995Z,36.38
2018-08-13T11:59:17.930Z,36.49
2018-08-13T12:00:17.872Z,36.16
2018-08-13T12:01:17.806Z,35.18
2018-08-13T12:02:17.731Z,35.04
2018-08-13T12:03:17.667Z,35.11
2018-08-13T12:04:17.606Z,35.60
2018-08-13T12:05:17.542Z,35.96
2018-08-13T12:06:17.480Z,35.72
2018-08-13T12:07:17.419Z,35.78
2018-08-13T12:08:17.358Z,35.44
2018-08-13T12:09:17.294Z,35.26
2018-08-13T12:10:17.231Z,35.31
2018-08-13T12:11:17.169Z,35.84
2018-08-13T12:12:17.107Z,35.97
2018-08-13T12:13:17.044Z,36.23
2018-08-13T12:14:16.975Z,36.20
2018-08-13T12:15:16.907Z,36.27
2018-08-13T12:16:16.845Z,36.51
2018-08-13T12:17:16.781Z,36.38
2018-08-13T12:18:16.723Z,36.28
2018-08-13T12:19:16.666Z,36.80
2018-08-13T12:20:16.845Z,36.76
2018-08-13T12:21:16.525Z,36.17
2018-08-13T12:22:16.457Z,35.68
2018-08-13T12:23:16.396Z,35.00
2018-08-13T12:24:16.346Z,34.52
2018-08-13T12:25:16.277Z,34.54
2018-08-13T12:26:16.223Z,34.17
2018-08-13T12:27:16.147Z,33.87
2018-08-13T12:28:16.098Z,34.19
2018-08-13T12:29:16.008Z,34.31
2018-08-13T12:30:15.946Z,34.30
2018-08-13T12:31:15.900Z,33.57
2018-08-13T12:32:15.822Z,33.37
2018-08-13T12:33:15.758Z,32.97
2018-08-13T12:34:15.697Z,33.15
2018-08-13T12:35:15.622Z,33.19
2018-08-13T12:36:15.560Z,32.92
2018-08-13T12:37:15.497Z,32.81
2018-08-13T12:38:15.434Z,32.93
2018-08-13T12:39:15.359Z,32.89
2018-08-13T12:40:15.298Z,33.18
2018-08-13T12:41:15.238Z,33.51
2018-08-13T12:42:15.161Z,33.18
2018-08-13T12:43:15.098Z,33.19
2018-08-13T12:44:15.035Z,33.45
2018-08-13T12:45:14.972Z,34.28
2018-08-13T12:46:14.898Z,35.90
2018-08-13T12:47:14.837Z,36.57
2018-08-13T12:48:14.774Z,35.50
2018-08-13T12:49:14.714Z,34.13
2018-08-13T12:50:14.635Z,34.03
2018-08-13T12:51:14.573Z,34.05